createdAt,value
2022-12-08T00:00:03.528Z,1.3
2022-12-08T00:02:02.819Z,1.1
2022-12-08T00:04:04.447Z,1.3
2022-12-08T00:06:15.383Z,1.4
2022-12-08T00:08:11.865Z,1.1
2022-12-08T00:10:18.809Z,2.1
2022-12-08T00:12:05.558Z,1.7
2022-12-08T00:14:03.303Z,1.4
2022-12-08T00:16:02.383Z,1.4
2022-12-08T00:18:02.779Z,1.4
2022-12-08T00:20:02.764Z,1.2
2022-12-08T00:22:03.541Z,1.3
2022-12-08T00:24:02.901Z,1.4
2022-12-08T00:26:04.230Z,1.3
2022-12-08T00:28:03.211Z,1.3
2022-12-08T00:30:03.275Z,1.3
2022-12-08T00:32:02.721Z,1.3
2022-12-08T00:34:03.713Z,1.4
2022-12-08T00:36:07.411Z,1.3
2022-12-08T00:38:03.237Z,1.3
2022-12-08T00:40:02.900Z,1.6
2022-12-08T00:42:11.884Z,1.7
2022-12-08T00:44:02.660Z,1.7
2022-12-08T00:46:03.124Z,1.5
2022-12-08T00:48:02.627Z,1.3
2022-12-08T00:50:02.947Z,1.6
2022-12-08T00:52:03.284Z,1.3
2022-12-08T00:54:03.490Z,1.6
2022-12-08T00:56:03.417Z,1.9
2022-12-08T00:58:03.386Z,3.3
2022-12-08T01:00:02.983Z,2.0
2022-12-08T01:02:02.655Z,2.2
2022-12-08T01:04:04.395Z,2.3
2022-12-08T01:06:04.052Z,2.4
2022-12-08T01:08:05.493Z,1.9
2022-12-08T01:10:03.371Z,2.4
2022-12-08T01:12:02.706Z,2.4
2022-12-08T01:14:02.758Z,2.1
2022-12-08T01:16:02.585Z,2.8
2022-12-08T01:18:03.547Z,2.1
2022-12-08T01:20:03.017Z,2.8
2022-12-08T01:22:03.515Z,3.1
2022-12-08T01:24:02.789Z,4.9
2022-12-08T01:26:04.191Z,5.2
2022-12-08T01:28:02.617Z,4.0
2022-12-08T01:30:04.687Z,4.0
2022-12-08T01:32:03.586Z,4.0
2022-12-08T01:34:02.630Z,3.5
2022-12-08T01:36:05.570Z,3.8
2022-12-08T01:38:03.176Z,4.9
2022-12-08T01:40:03.763Z,5.4
2022-12-08T01:42:03.569Z,5.1
2022-12-08T01:44:13.195Z,2.9
2022-12-08T01:46:03.292Z,3.2
2022-12-08T01:48:07.380Z,3.3
2022-12-08T01:50:04.932Z,2.9
2022-12-08T01:52:08.035Z,3.4
2022-12-08T01:54:04.292Z,4.8
2022-12-08T01:56:10.506Z,6.0
2022-12-08T01:58:11.438Z,8.0
2022-12-08T02:00:06.841Z,7.5
2022-12-08T02:02:02.763Z,7.7
2022-12-08T02:04:04.751Z,9.4
2022-12-08T02:06:03.869Z,8.9
2022-12-08T02:08:07.422Z,8.6
2022-12-08T02:10:03.731Z,8.1
2022-12-08T02:12:02.662Z,7.5
2022-12-08T02:14:06.912Z,9.5
2022-12-08T02:16:09.873Z,10.1
2022-12-08T02:18:13.891Z,9.2
2022-12-08T02:20:20.671Z,10.7
2022-12-08T02:22:11.617Z,11.1
2022-12-08T02:24:14.196Z,10.3
2022-12-08T02:26:21.870Z,10.1
2022-12-08T02:28:18.320Z,9.7
2022-12-08T02:30:08.771Z,10.0
2022-12-08T02:32:21.782Z,8.2
2022-12-08T02:34:16.849Z,6.5
2022-12-08T02:36:09.898Z,5.8
2022-12-08T02:38:15.200Z,4.9
2022-12-08T02:40:09.617Z,6.3
2022-12-08T02:42:10.473Z,5.9
2022-12-08T02:44:09.125Z,7.0
2022-12-08T02:46:08.778Z,8.0
2022-12-08T02:48:03.191Z,5.6
2022-12-08T02:50:03.572Z,7.0
2022-12-08T02:52:08.739Z,8.7
2022-12-08T02:54:04.233Z,6.1
2022-12-08T02:56:15.981Z,4.6
2022-12-08T02:58:21.621Z,5.5
2022-12-08T03:00:07.671Z,4.4
2022-12-08T03:02:21.747Z,5.9
2022-12-08T03:04:09.071Z,5.4
2022-12-08T03:06:17.976Z,3.9
2022-12-08T03:08:11.033Z,4.6
2022-12-08T03:10:11.173Z,5.3
2022-12-08T03:12:13.459Z,5.7
2022-12-08T03:14:07.554Z,3.9
2022-12-08T03:16:06.895Z,4.6
2022-12-08T03:18:06.346Z,6.6
2022-12-08T03:20:08.982Z,4.5
2022-12-08T03:22:05.359Z,5.7
2022-12-08T03:24:07.745Z,5.0
2022-12-08T03:26:11.176Z,5.1
2022-12-08T03:28:03.446Z,8.0
2022-12-08T03:30:04.051Z,7.6
2022-12-08T03:32:09.410Z,7.2
2022-12-08T03:34:05.637Z,8.3
2022-12-08T03:36:08.120Z,9.8
2022-12-08T03:38:05.252Z,10.4
2022-12-08T03:40:03.082Z,9.9
2022-12-08T03:42:02.964Z,11.5
2022-12-08T03:44:02.940Z,11.8
2022-12-08T03:46:03.554Z,12.4
2022-12-08T03:48:03.384Z,13.8
2022-12-08T03:50:03.049Z,12.5
2022-12-08T03:52:03.203Z,13.2
2022-12-08T03:54:02.767Z,13.5
2022-12-08T03:56:04.879Z,13.3
2022-12-08T03:58:02.657Z,13.7
2022-12-08T04:00:03.263Z,12.3
2022-12-08T04:02:02.665Z,13.2
2022-12-08T04:04:03.116Z,12.3
2022-12-08T04:06:02.975Z,12.6
2022-12-08T04:08:02.904Z,12.9
2022-12-08T04:10:02.906Z,13.1
2022-12-08T04:12:02.593Z,12.4
2022-12-08T04:14:02.779Z,11.6
2022-12-08T04:16:02.705Z,12.3
2022-12-08T04:18:02.917Z,12.0
2022-12-08T04:20:03.326Z,12.1
2022-12-08T04:22:02.651Z,12.8
2022-12-08T04:24:03.171Z,12.8
2022-12-08T04:26:02.620Z,13.0
2022-12-08T04:28:03.114Z,12.6
2022-12-08T04:30:03.949Z,13.6
2022-12-08T04:32:03.192Z,13.0
2022-12-08T04:34:03.174Z,13.1
2022-12-08T04:36:02.842Z,13.3
2022-12-08T04:38:03.508Z,12.9
2022-12-08T04:40:03.628Z,13.5
2022-12-08T04:42:02.974Z,12.3
2022-12-08T04:44:03.426Z,12.9
2022-12-08T04:46:06.277Z,13.4
2022-12-08T04:48:03.198Z,13.1
2022-12-08T04:50:04.605Z,12.9
2022-12-08T04:52:03.136Z,13.0
2022-12-08T04:54:03.404Z,13.0
2022-12-08T04:56:02.830Z,12.7
2022-12-08T04:58:02.667Z,13.4
2022-12-08T05:00:03.217Z,12.8
2022-12-08T05:02:03.108Z,12.6
2022-12-08T05:04:02.636Z,14.4
2022-12-08T05:06:03.009Z,13.4
2022-12-08T05:08:03.054Z,13.6
2022-12-08T05:10:03.293Z,13.6
2022-12-08T05:12:03.417Z,13.7
2022-12-08T05:14:02.661Z,14.9
2022-12-08T05:16:05.925Z,13.7
2022-12-08T05:18:02.775Z,13.1
2022-12-08T05:20:03.801Z,13.3
2022-12-08T05:22:02.588Z,12.7
2022-12-08T05:24:02.957Z,12.9
2022-12-08T05:26:03.691Z,13.0
2022-12-08T05:28:32.730Z,13.2
2022-12-08T05:30:03.237Z,12.6
2022-12-08T05:32:02.841Z,13.2
2022-12-08T05:34:03.628Z,13.6
2022-12-08T05:36:02.696Z,13.5
2022-12-08T05:38:02.748Z,13.0
2022-12-08T05:40:04.104Z,13.8
2022-12-08T05:42:02.875Z,14.6
2022-12-08T05:44:03.504Z,13.5
2022-12-08T05:46:03.614Z,13.9
2022-12-08T05:48:03.196Z,13.4
2022-12-08T05:50:03.062Z,13.7
2022-12-08T05:52:02.653Z,13.9
2022-12-08T05:54:03.786Z,12.9
2022-12-08T05:56:02.691Z,13.0
2022-12-08T05:58:07.796Z,14.0
2022-12-08T06:00:03.268Z,13.5
2022-12-08T06:02:03.700Z,13.4
2022-12-08T06:04:04.864Z,13.8
2022-12-08T06:06:05.399Z,13.6
2022-12-08T06:08:02.991Z,13.6
2022-12-08T06:10:03.232Z,13.4
2022-12-08T06:12:03.494Z,13.6
2022-12-08T06:14:02.990Z,13.0
2022-12-08T06:16:04.671Z,14.4
2022-12-08T06:18:03.274Z,12.9
2022-12-08T06:20:03.043Z,13.9
2022-12-08T06:22:02.694Z,14.0
2022-12-08T06:24:02.630Z,13.8
2022-12-08T06:26:03.640Z,13.5
2022-12-08T06:28:05.329Z,13.6
2022-12-08T06:30:03.164Z,14.1
2022-12-08T06:32:02.702Z,13.7
2022-12-08T06:34:02.649Z,13.8
2022-12-08T06:36:02.636Z,14.4
2022-12-08T06:38:02.804Z,13.2
2022-12-08T06:40:03.223Z,15.1
2022-12-08T06:42:12.073Z,14.0
2022-12-08T06:44:03.198Z,14.5
2022-12-08T06:46:05.372Z,13.4
2022-12-08T06:48:03.882Z,13.7
2022-12-08T06:50:04.450Z,15.0
2022-12-08T06:52:03.239Z,14.0
2022-12-08T06:54:02.857Z,14.5
2022-12-08T06:56:03.932Z,15.0
2022-12-08T06:58:02.631Z,14.4
2022-12-08T07:00:03.577Z,12.6
2022-12-08T07:02:02.878Z,13.3
2022-12-08T07:04:03.280Z,14.3
2022-12-08T07:06:04.532Z,14.5
2022-12-08T07:08:02.835Z,14.1
2022-12-08T07:10:03.675Z,15.2
2022-12-08T07:12:03.937Z,14.8
2022-12-08T07:14:02.981Z,15.0
2022-12-08T07:16:05.223Z,14.1
2022-12-08T07:18:03.402Z,14.5
2022-12-08T07:20:04.128Z,15.6
2022-12-08T07:22:02.659Z,13.7
2022-12-08T07:24:02.825Z,14.4
2022-12-08T07:26:04.925Z,14.4
2022-12-08T07:28:08.153Z,14.3
2022-12-08T07:30:03.360Z,14.2
2022-12-08T07:32:02.726Z,14.0
2022-12-08T07:34:03.411Z,13.5
2022-12-08T07:36:06.196Z,14.4
2022-12-08T07:38:03.539Z,14.3
2022-12-08T07:40:04.033Z,15.3
2022-12-08T07:42:03.595Z,13.9
2022-12-08T07:44:02.684Z,13.5
2022-12-08T07:46:02.696Z,13.4
2022-12-08T07:48:02.644Z,14.1
2022-12-08T07:50:02.973Z,14.5
2022-12-08T07:52:02.648Z,13.3
2022-12-08T07:54:02.871Z,14.6
2022-12-08T07:56:06.797Z,14.0
2022-12-08T07:58:02.622Z,13.5
2022-12-08T08:00:04.320Z,13.5
2022-12-08T08:02:22.694Z,13.2
2022-12-08T08:04:05.005Z,14.0
2022-12-08T08:06:05.569Z,13.4
2022-12-08T08:08:03.627Z,13.7
2022-12-08T08:10:04.122Z,13.4
2022-12-08T08:12:29.631Z,14.5
2022-12-08T08:14:02.932Z,14.5
2022-12-08T08:16:06.206Z,14.4
2022-12-08T08:18:03.219Z,14.1
2022-12-08T08:20:03.279Z,14.6
2022-12-08T08:22:02.605Z,14.0
2022-12-08T08:24:02.620Z,14.5
2022-12-08T08:26:04.366Z,14.0
2022-12-08T08:28:02.649Z,14.1
2022-12-08T08:30:04.309Z,14.2
2022-12-08T08:32:02.703Z,14.7
2022-12-08T08:34:05.701Z,14.8
2022-12-08T08:36:06.690Z,13.7
2022-12-08T08:38:03.480Z,14.2
2022-12-08T08:40:04.374Z,14.5
2022-12-08T08:42:02.974Z,13.8
2022-12-08T08:44:02.830Z,15.5
2022-12-08T08:46:04.279Z,14.4
2022-12-08T08:48:02.668Z,13.9
2022-12-08T08:50:03.789Z,14.6
2022-12-08T08:52:03.300Z,14.1
2022-12-08T08:54:02.914Z,15.3
2022-12-08T08:56:05.386Z,15.8
2022-12-08T08:58:02.786Z,15.2
2022-12-08T09:00:03.408Z,14.9
2022-12-08T09:02:02.965Z,14.3
2022-12-08T09:04:03.041Z,13.9
2022-12-08T09:06:03.552Z,14.3
2022-12-08T09:08:03.338Z,13.4
2022-12-08T09:10:02.768Z,13.4
2022-12-08T09:12:03.243Z,13.7
2022-12-08T09:14:02.962Z,13.7
2022-12-08T09:16:02.962Z,13.6
2022-12-08T09:18:02.713Z,14.0
2022-12-08T09:20:03.945Z,14.0
2022-12-08T09:22:02.736Z,13.8
2022-12-08T09:24:02.643Z,14.9
2022-12-08T09:26:04.820Z,14.6
2022-12-08T09:28:02.667Z,14.7
2022-12-08T09:30:03.714Z,13.7
2022-12-08T09:32:02.678Z,13.4
2022-12-08T09:34:04.036Z,13.0
2022-12-08T09:36:04.505Z,15.3
2022-12-08T09:38:02.878Z,14.0
2022-12-08T09:40:03.780Z,14.0
2022-12-08T09:42:04.794Z,14.7
2022-12-08T09:44:15.471Z,14.7
2022-12-08T09:46:08.236Z,14.3
2022-12-08T09:48:10.334Z,14.5
2022-12-08T09:50:08.765Z,14.7
2022-12-08T09:52:03.683Z,14.7
2022-12-08T09:54:07.604Z,14.9
2022-12-08T09:56:07.269Z,14.6
2022-12-08T09:58:07.378Z,14.0
2022-12-08T10:00:07.093Z,14.1
2022-12-08T10:02:11.274Z,13.7
2022-12-08T10:04:03.808Z,14.7
2022-12-08T10:06:08.427Z,14.7
2022-12-08T10:08:12.494Z,14.1
2022-12-08T10:10:13.954Z,14.8
2022-12-08T10:12:12.487Z,13.1
2022-12-08T10:14:14.882Z,15.2
2022-12-08T10:16:23.052Z,15.1
2022-12-08T10:18:10.526Z,14.3
2022-12-08T10:20:10.705Z,15.2
2022-12-08T10:22:12.655Z,14.2
2022-12-08T10:24:09.792Z,14.5
2022-12-08T10:26:06.027Z,14.5
2022-12-08T10:28:02.720Z,14.7
2022-12-08T10:30:03.991Z,13.8
2022-12-08T10:32:14.861Z,15.6
2022-12-08T10:34:17.485Z,15.1
2022-12-08T10:36:04.317Z,14.5
2022-12-08T10:38:06.035Z,14.7
2022-12-08T10:40:11.144Z,14.8
2022-12-08T10:42:09.072Z,14.4
2022-12-08T10:44:03.500Z,14.4
2022-12-08T10:46:13.488Z,13.8
2022-12-08T10:48:05.807Z,14.5
2022-12-08T10:50:19.259Z,13.6
2022-12-08T10:52:09.861Z,14.5
2022-12-08T10:54:03.021Z,15.3
2022-12-08T10:56:15.499Z,15.3
2022-12-08T10:58:02.747Z,14.7
2022-12-08T11:00:03.465Z,15.0
2022-12-08T11:02:03.093Z,14.9
2022-12-08T11:04:06.514Z,15.6
2022-12-08T11:06:12.389Z,14.5
2022-12-08T11:08:05.235Z,14.2
2022-12-08T11:10:03.226Z,14.1
2022-12-08T11:12:09.559Z,15.1
2022-12-08T11:14:08.933Z,14.0
2022-12-08T11:16:02.784Z,14.4
2022-12-08T11:18:09.606Z,13.2
2022-12-08T11:20:06.506Z,14.2
2022-12-08T11:22:03.488Z,14.0
2022-12-08T11:24:20.809Z,14.1
2022-12-08T11:26:10.641Z,14.2
2022-12-08T11:28:03.486Z,15.0
2022-12-08T11:30:12.552Z,14.5
2022-12-08T11:32:07.222Z,14.5
2022-12-08T11:34:03.738Z,14.2
2022-12-08T11:36:08.633Z,14.0
2022-12-08T11:38:21.287Z,14.4
2022-12-08T11:40:09.418Z,14.2
2022-12-08T11:42:06.213Z,14.1
2022-12-08T11:44:11.114Z,13.6
2022-12-08T11:46:04.934Z,14.7
2022-12-08T11:48:10.221Z,14.0
2022-12-08T11:50:19.891Z,13.6
2022-12-08T11:52:11.684Z,14.4
2022-12-08T11:54:14.025Z,14.2
2022-12-08T11:56:10.897Z,14.2
2022-12-08T11:58:14.568Z,14.1
2022-12-08T12:00:04.301Z,13.7
2022-12-08T12:02:05.532Z,14.2
2022-12-08T12:04:11.732Z,14.0
2022-12-08T12:08:18.217Z,14.1
2022-12-08T12:10:18.391Z,14.3
2022-12-08T12:12:17.222Z,14.1
2022-12-08T12:14:16.198Z,14.3
2022-12-08T12:16:21.801Z,13.3
2022-12-08T12:18:05.632Z,14.5
2022-12-08T12:20:11.674Z,14.1
2022-12-08T12:22:15.110Z,13.5
2022-12-08T12:24:06.984Z,13.7
2022-12-08T12:26:06.146Z,14.0
2022-12-08T12:28:06.166Z,13.9
2022-12-08T12:30:09.239Z,13.4
2022-12-08T12:32:06.066Z,13.8
2022-12-08T12:34:09.048Z,13.6
2022-12-08T12:36:05.931Z,14.2
2022-12-08T12:38:17.132Z,14.1
2022-12-08T12:40:06.757Z,14.3
2022-12-08T12:42:05.474Z,14.4
2022-12-08T12:44:22.538Z,14.0
2022-12-08T12:46:21.774Z,14.2
2022-12-08T12:48:20.228Z,14.1
2022-12-08T12:50:07.140Z,14.5
2022-12-08T12:52:02.739Z,14.3
2022-12-08T12:54:21.895Z,13.8
2022-12-08T12:56:04.332Z,13.6
2022-12-08T12:58:13.838Z,13.4
2022-12-08T13:00:18.983Z,14.6
2022-12-08T13:02:03.793Z,13.5
2022-12-08T13:04:07.851Z,13.9
2022-12-08T13:06:03.179Z,14.5
2022-12-08T13:08:06.540Z,13.8
2022-12-08T13:10:13.305Z,14.4
2022-12-08T13:12:10.506Z,14.9
2022-12-08T13:14:05.127Z,13.9
2022-12-08T13:16:17.192Z,13.3
2022-12-08T13:18:03.737Z,14.6
2022-12-08T13:20:07.748Z,13.7
2022-12-08T13:22:02.689Z,14.5
2022-12-08T13:24:16.877Z,14.9
2022-12-08T13:26:21.391Z,14.4
2022-12-08T13:28:14.535Z,13.8
2022-12-08T13:30:21.904Z,14.4
2022-12-08T13:32:04.172Z,14.6
2022-12-08T13:34:07.061Z,14.0
2022-12-08T13:36:15.468Z,13.0
2022-12-08T13:38:04.010Z,13.0
2022-12-08T13:40:09.006Z,13.8
2022-12-08T13:42:07.810Z,13.1
2022-12-08T13:44:57.139Z,14.4
2022-12-08T13:48:42.635Z,15.6
2022-12-08T13:58:02.676Z,14.9
2022-12-08T14:00:07.417Z,14.6
2022-12-08T14:02:11.592Z,13.4
2022-12-08T14:04:34.078Z,14.2
2022-12-08T14:06:12.209Z,13.9
2022-12-08T14:08:02.767Z,15.1
2022-12-08T14:10:04.266Z,14.4
2022-12-08T14:12:07.122Z,13.6
2022-12-08T14:14:06.310Z,13.6
2022-12-08T14:16:02.804Z,14.2
2022-12-08T14:18:03.121Z,15.5
2022-12-08T14:20:06.739Z,14.7
2022-12-08T14:22:11.104Z,13.9
2022-12-08T14:24:04.123Z,14.1
2022-12-08T14:26:05.439Z,14.2
2022-12-08T14:28:05.156Z,13.3
2022-12-08T14:30:06.147Z,13.4
2022-12-08T14:32:03.028Z,14.1
2022-12-08T14:34:02.770Z,13.9
2022-12-08T14:36:03.050Z,14.4
2022-12-08T14:38:05.532Z,13.9
2022-12-08T14:40:06.062Z,13.9
2022-12-08T14:42:03.285Z,14.6
2022-12-08T14:44:03.470Z,14.0
2022-12-08T14:46:05.827Z,13.9
2022-12-08T14:48:21.952Z,13.7
2022-12-08T14:50:14.366Z,13.2
2022-12-08T14:52:03.877Z,13.3
2022-12-08T14:54:08.588Z,13.6
2022-12-08T14:56:08.990Z,14.1
2022-12-08T14:58:03.741Z,13.2
2022-12-08T15:00:11.910Z,13.8
2022-12-08T15:02:22.319Z,14.1
2022-12-08T15:04:09.697Z,14.0
2022-12-08T15:06:07.316Z,13.9
2022-12-08T15:08:04.749Z,13.8
2022-12-08T15:10:21.892Z,13.6
2022-12-08T15:12:04.065Z,13.2
2022-12-08T15:14:03.781Z,13.4
2022-12-08T15:16:02.838Z,12.7
2022-12-08T15:18:12.344Z,13.7
2022-12-08T15:20:04.988Z,14.0
2022-12-08T15:22:14.208Z,13.5
2022-12-08T15:24:02.713Z,13.7
2022-12-08T15:26:05.807Z,14.2
2022-12-08T15:28:03.830Z,14.5
2022-12-08T15:30:02.834Z,14.3
2022-12-08T15:32:03.306Z,15.2
2022-12-08T15:34:02.897Z,15.8
2022-12-08T15:36:02.762Z,15.2
2022-12-08T15:38:02.784Z,15.1
2022-12-08T15:40:03.209Z,14.8
2022-12-08T15:42:04.319Z,15.1
2022-12-08T15:44:02.714Z,14.9
2022-12-08T15:46:03.114Z,14.6
2022-12-08T15:48:02.811Z,15.9
2022-12-08T15:50:04.870Z,14.5
2022-12-08T15:52:11.096Z,14.0
2022-12-08T15:54:02.765Z,14.2
2022-12-08T15:56:28.604Z,14.0
2022-12-08T15:58:51.822Z,14.7
2022-12-08T16:00:03.319Z,13.4
2022-12-08T16:02:04.163Z,15.3
2022-12-08T16:06:57.039Z,13.9
2022-12-08T16:08:17.048Z,15.0
2022-12-08T16:10:04.133Z,14.1
2022-12-08T16:12:12.191Z,13.1
2022-12-08T16:14:36.813Z,14.5
2022-12-08T16:16:05.302Z,13.7
2022-12-08T16:18:03.831Z,13.7
2022-12-08T16:20:05.290Z,13.1
2022-12-08T16:22:52.381Z,13.1
2022-12-08T16:24:08.888Z,13.3
2022-12-08T16:26:23.872Z,14.0
2022-12-08T16:28:12.330Z,15.1
2022-12-08T16:30:02.936Z,14.1
2022-12-08T16:32:02.814Z,12.5
2022-12-08T16:34:03.578Z,14.3
2022-12-08T16:36:02.667Z,13.7
2022-12-08T16:38:03.102Z,12.8
2022-12-08T16:40:02.806Z,13.8
2022-12-08T16:42:12.267Z,14.4
2022-12-08T16:44:04.784Z,14.4
2022-12-08T16:46:03.459Z,13.8
2022-12-08T16:48:02.674Z,14.8
2022-12-08T16:50:06.911Z,13.6
2022-12-08T16:52:02.661Z,14.0
2022-12-08T16:54:03.440Z,14.2
2022-12-08T16:56:03.234Z,13.8
2022-12-08T16:58:03.194Z,14.0
2022-12-08T17:00:04.454Z,14.3
2022-12-08T17:02:02.732Z,14.3
2022-12-08T17:04:31.332Z,13.0
2022-12-08T17:06:08.264Z,14.2
2022-12-08T17:08:03.347Z,13.7
2022-12-08T17:10:05.904Z,14.3
2022-12-08T17:12:04.308Z,14.3
2022-12-08T17:14:02.927Z,14.2
2022-12-08T17:16:03.198Z,14.7
2022-12-08T17:18:03.826Z,14.0
2022-12-08T17:20:04.595Z,14.4
2022-12-08T17:22:02.851Z,14.4
2022-12-08T17:24:02.698Z,14.3
2022-12-08T17:26:03.547Z,13.2
2022-12-08T17:28:02.688Z,13.5
2022-12-08T17:30:02.932Z,14.5
2022-12-08T17:32:02.985Z,14.1
2022-12-08T17:34:05.817Z,14.8
2022-12-08T17:36:02.694Z,14.2
2022-12-08T17:38:02.817Z,14.8
2022-12-08T17:40:04.073Z,13.5
2022-12-08T17:42:02.673Z,13.7
2022-12-08T17:44:02.751Z,14.4
2022-12-08T17:46:04.480Z,14.1
2022-12-08T17:48:02.696Z,14.6
2022-12-08T17:50:04.584Z,13.7
2022-12-08T17:52:06.281Z,14.0
2022-12-08T17:54:02.731Z,14.0
2022-12-08T17:56:03.352Z,13.6
2022-12-08T17:58:03.830Z,13.9
2022-12-08T18:00:03.195Z,13.9
2022-12-08T18:02:03.930Z,14.6
2022-12-08T18:04:04.676Z,13.8
2022-12-08T18:06:06.424Z,13.4
2022-12-08T18:08:02.856Z,13.4
2022-12-08T18:10:03.995Z,14.8
2022-12-08T18:12:02.766Z,13.9
2022-12-08T18:14:09.548Z,14.3
2022-12-08T18:16:02.668Z,14.1
2022-12-08T18:18:03.011Z,13.9
2022-12-08T18:20:03.087Z,14.3
2022-12-08T18:22:03.444Z,13.6
2022-12-08T18:24:03.861Z,14.1
2022-12-08T18:26:05.464Z,14.1
2022-12-08T18:28:02.668Z,13.5
2022-12-08T18:30:04.108Z,14.3
2022-12-08T18:32:03.391Z,14.3
2022-12-08T18:34:03.108Z,13.7
2022-12-08T18:36:07.529Z,14.5
2022-12-08T18:38:02.784Z,14.2
2022-12-08T18:40:02.949Z,14.5
2022-12-08T18:42:11.924Z,14.2
2022-12-08T18:44:02.754Z,14.3
2022-12-08T18:46:04.733Z,14.0
2022-12-08T18:48:03.988Z,15.3
2022-12-08T18:50:03.654Z,14.1
2022-12-08T18:52:02.698Z,13.8
2022-12-08T18:54:02.681Z,13.6
2022-12-08T18:56:02.856Z,14.6
2022-12-08T18:58:03.476Z,14.4
2022-12-08T19:00:03.411Z,15.0
2022-12-08T19:02:02.935Z,14.4
2022-12-08T19:04:28.674Z,14.2
2022-12-08T19:06:03.090Z,15.2
2022-12-08T19:08:02.746Z,15.3
2022-12-08T19:10:03.579Z,14.0
2022-12-08T19:12:02.875Z,14.5
2022-12-08T19:14:03.004Z,15.6
2022-12-08T19:16:02.772Z,14.7
2022-12-08T19:18:02.664Z,14.2
2022-12-08T19:20:04.445Z,14.4
2022-12-08T19:22:03.298Z,15.0
2022-12-08T19:24:02.762Z,15.2
2022-12-08T19:26:03.624Z,15.0
2022-12-08T19:28:02.705Z,14.8
2022-12-08T19:30:02.833Z,14.9
2022-12-08T19:32:04.763Z,14.7
2022-12-08T19:34:05.445Z,14.5
2022-12-08T19:36:05.341Z,14.2
2022-12-08T19:38:02.928Z,13.9
2022-12-08T19:40:11.754Z,14.2
2022-12-08T19:42:11.791Z,14.4
2022-12-08T19:44:11.735Z,14.7
2022-12-08T19:46:03.944Z,14.9
2022-12-08T19:48:02.729Z,15.2
2022-12-08T19:50:11.905Z,15.0
2022-12-08T19:52:02.733Z,13.9
2022-12-08T19:54:02.735Z,14.1
2022-12-08T19:56:02.740Z,14.9
2022-12-08T19:58:04.093Z,14.4
2022-12-08T20:00:02.793Z,14.4
2022-12-08T20:02:04.163Z,14.9
2022-12-08T20:04:02.764Z,14.8
2022-12-08T20:06:02.790Z,14.5
2022-12-08T20:08:03.986Z,14.4
2022-12-08T20:10:06.187Z,14.6
2022-12-08T20:12:02.725Z,14.4
2022-12-08T20:14:03.687Z,14.0
2022-12-08T20:16:03.381Z,14.2
2022-12-08T20:18:02.656Z,14.6
2022-12-08T20:20:06.795Z,13.6
2022-12-08T20:22:03.726Z,14.6
2022-12-08T20:24:04.211Z,14.3
2022-12-08T20:26:06.552Z,14.1
2022-12-08T20:28:02.829Z,14.0
2022-12-08T20:30:02.820Z,14.4
2022-12-08T20:32:02.894Z,14.2
2022-12-08T20:34:03.050Z,13.8
2022-12-08T20:36:07.077Z,13.9
2022-12-08T20:38:02.793Z,13.7
2022-12-08T20:40:02.742Z,14.0
2022-12-08T20:42:04.235Z,13.8
2022-12-08T20:44:06.783Z,13.9
2022-12-08T20:46:06.200Z,12.8
2022-12-08T20:48:03.807Z,14.2
2022-12-08T20:50:04.362Z,12.8
2022-12-08T20:52:02.922Z,14.0
2022-12-08T20:54:04.737Z,14.0
2022-12-08T20:56:03.237Z,14.2
2022-12-08T20:58:02.848Z,14.6
2022-12-08T21:00:05.287Z,13.9
2022-12-08T21:02:03.132Z,14.0
2022-12-08T21:04:02.959Z,13.9
2022-12-08T21:06:03.563Z,13.9
2022-12-08T21:08:03.075Z,13.7
2022-12-08T21:10:03.818Z,14.1
2022-12-08T21:12:03.788Z,13.9
2022-12-08T21:14:03.023Z,14.5
2022-12-08T21:16:02.885Z,14.4
2022-12-08T21:18:03.115Z,14.0
2022-12-08T21:20:03.079Z,14.0
2022-12-08T21:22:02.785Z,14.7
2022-12-08T21:24:04.616Z,14.0
2022-12-08T21:26:02.911Z,13.9
2022-12-08T21:28:02.811Z,14.1
2022-12-08T21:30:03.039Z,13.9
2022-12-08T21:32:02.827Z,13.9
2022-12-08T21:34:04.135Z,14.4
2022-12-08T21:36:07.806Z,13.6
2022-12-08T21:38:04.370Z,14.3
2022-12-08T21:40:03.047Z,14.6
2022-12-08T21:42:11.769Z,14.4
2022-12-08T21:44:03.038Z,15.7
2022-12-08T21:46:03.693Z,14.8
2022-12-08T21:48:11.037Z,14.2
2022-12-08T21:50:02.932Z,14.9
2022-12-08T21:52:02.735Z,14.3
2022-12-08T21:54:03.715Z,14.3
2022-12-08T21:56:02.752Z,14.8
2022-12-08T21:58:03.381Z,14.4
2022-12-08T22:00:03.805Z,14.3
2022-12-08T22:02:02.949Z,13.6
2022-12-08T22:04:03.036Z,14.5
2022-12-08T22:06:06.386Z,14.3
2022-12-08T22:08:03.643Z,15.0
2022-12-08T22:10:02.949Z,14.7
2022-12-08T22:12:03.183Z,13.8
2022-12-08T22:14:02.746Z,14.1
2022-12-08T22:16:06.185Z,14.3
2022-12-08T22:18:03.127Z,14.3
2022-12-08T22:20:04.633Z,13.7
2022-12-08T22:22:04.285Z,14.4
2022-12-08T22:24:03.338Z,14.7
2022-12-08T22:26:04.850Z,14.4
2022-12-08T22:28:02.776Z,14.6
2022-12-08T22:30:03.711Z,14.1
2022-12-08T22:32:03.001Z,14.5
2022-12-08T22:34:02.702Z,15.4
2022-12-08T22:36:10.230Z,14.3
2022-12-08T22:38:02.728Z,15.2
2022-12-08T22:40:03.153Z,14.7
2022-12-08T22:42:03.409Z,13.6
2022-12-08T22:44:06.555Z,14.9
2022-12-08T22:46:10.094Z,14.5
2022-12-08T22:48:02.897Z,15.6
2022-12-08T22:50:04.736Z,15.8
2022-12-08T22:52:03.045Z,15.3
2022-12-08T22:54:03.004Z,15.0
2022-12-08T22:56:05.940Z,14.6
2022-12-08T22:58:02.709Z,14.3
2022-12-08T23:00:05.633Z,14.8
2022-12-08T23:02:02.774Z,17.3
2022-12-08T23:04:03.948Z,15.6
2022-12-08T23:06:03.502Z,13.7
2022-12-08T23:08:05.458Z,14.2
2022-12-08T23:10:04.350Z,14.5
2022-12-08T23:12:02.911Z,14.4
2022-12-08T23:14:02.742Z,14.3
2022-12-08T23:16:03.176Z,14.2
2022-12-08T23:18:03.567Z,13.7
2022-12-08T23:20:03.027Z,13.9
2022-12-08T23:22:02.776Z,13.6
2022-12-08T23:24:04.524Z,13.7
2022-12-08T23:26:04.493Z,13.6
2022-12-08T23:28:02.742Z,14.0
2022-12-08T23:30:02.748Z,14.3
2022-12-08T23:32:03.052Z,14.1
2022-12-08T23:34:03.518Z,13.1
2022-12-08T23:36:03.118Z,13.6
2022-12-08T23:38:03.123Z,14.2
2022-12-08T23:40:04.440Z,13.8
2022-12-08T23:42:02.674Z,13.8
2022-12-08T23:44:02.870Z,14.3
2022-12-08T23:46:03.859Z,14.0
2022-12-08T23:48:02.886Z,14.3
2022-12-08T23:50:03.404Z,14.9
2022-12-08T23:52:02.856Z,14.0
2022-12-08T23:54:05.649Z,14.4
2022-12-08T23:56:05.180Z,14.5
2022-12-08T23:58:02.718Z,13.5
